METAR Formatted Surface Weather Observation
Issued by NWS

Home | Current Version | Previous Version | Text Only | Print | Product List | Glossary On
Versions: 1 2 3 4 5 6 7 8 9 10 11 12 13 14 15 16 17 18 19 20 21 22 23 24 25 26
946
SAUS46 KLOX 222153
MTRNZY
METAR KNZY 222152Z 20008KT 10SM FEW015 FEW060 SCT200 22/16 A2990 RMK
AO2 SLP124 T02220161



USA.gov is the U.S. government's official web portal to all federal, state and local government web resources and services.